sensor_id;sensor_type;location;lat;lon;timestamp;P1;durP1;ratioP1;P2;durP2;ratioP2
60454;SDS011;54989;53.398;6.564;2022-11-04T00:02:13;1.48;;;1.38;;
60454;SDS011;54989;53.398;6.564;2022-11-04T00:04:41;1.45;;;1.35;;
60454;SDS011;54989;53.398;6.564;2022-11-04T00:07:08;0.98;;;0.98;;
60454;SDS011;54989;53.398;6.564;2022-11-04T00:09:55;1.00;;;1.00;;
60454;SDS011;54989;53.398;6.564;2022-11-04T00:12:23;1.05;;;1.00;;
60454;SDS011;54989;53.398;6.564;2022-11-04T00:14:50;1.40;;;1.30;;
60454;SDS011;54989;53.398;6.564;2022-11-04T00:17:18;1.33;;;1.30;;
60454;SDS011;54989;53.398;6.564;2022-11-04T00:19:46;1.30;;;1.20;;
60454;SDS011;54989;53.398;6.564;2022-11-04T00:22:46;1.70;;;1.60;;
60454;SDS011;54989;53.398;6.564;2022-11-04T00:25:33;1.20;;;1.10;;
60454;SDS011;54989;53.398;6.564;2022-11-04T00:28:19;1.50;;;1.40;;
60454;SDS011;54989;53.398;6.564;2022-11-04T00:31:06;1.50;;;1.40;;
60454;SDS011;54989;53.398;6.564;2022-11-04T00:33:53;1.48;;;1.38;;
60454;SDS011;54989;53.398;6.564;2022-11-04T00:36:23;1.60;;;1.50;;
60454;SDS011;54989;53.398;6.564;2022-11-04T00:38:51;1.35;;;1.25;;
60454;SDS011;54989;53.398;6.564;2022-11-04T00:41:19;1.65;;;1.40;;
60454;SDS011;54989;53.398;6.564;2022-11-04T00:43:57;1.05;;;1.05;;
60454;SDS011;54989;53.398;6.564;2022-11-04T00:46:30;1.45;;;1.33;;
60454;SDS011;54989;53.398;6.564;2022-11-04T00:48:59;1.38;;;1.27;;
60454;SDS011;54989;53.398;6.564;2022-11-04T00:51:27;1.50;;;1.40;;
60454;SDS011;54989;53.398;6.564;2022-11-04T00:53:54;1.45;;;1.35;;
60454;SDS011;54989;53.398;6.564;2022-11-04T00:56:24;2.17;;;1.30;;
60454;SDS011;54989;53.398;6.564;2022-11-04T00:58:51;1.40;;;1.30;;
60454;SDS011;54989;53.398;6.564;2022-11-04T01:01:19;1.10;;;1.00;;
60454;SDS011;54989;53.398;6.564;2022-11-04T01:03:47;1.10;;;1.10;;
60454;SDS011;54989;53.398;6.564;2022-11-04T01:06:16;1.25;;;1.15;;
60454;SDS011;54989;53.398;6.564;2022-11-04T01:08:45;1.35;;;1.27;;
60454;SDS011;54989;53.398;6.564;2022-11-04T01:11:13;1.27;;;1.17;;
60454;SDS011;54989;53.398;6.564;2022-11-04T01:13:42;1.40;;;1.30;;
60454;SDS011;54989;53.398;6.564;2022-11-04T01:16:10;0.90;;;0.90;;
60454;SDS011;54989;53.398;6.564;2022-11-04T01:18:39;1.10;;;1.00;;
60454;SDS011;54989;53.398;6.564;2022-11-04T01:21:07;0.90;;;0.90;;
60454;SDS011;54989;53.398;6.564;2022-11-04T01:23:37;1.33;;;1.00;;
60454;SDS011;54989;53.398;6.564;2022-11-04T01:26:16;1.75;;;1.00;;
60454;SDS011;54989;53.398;6.564;2022-11-04T01:28:45;0.88;;;0.88;;
60454;SDS011;54989;53.398;6.564;2022-11-04T01:31:14;1.33;;;1.00;;
60454;SDS011;54989;53.398;6.564;2022-11-04T01:33:43;0.73;;;0.73;;
60454;SDS011;54989;53.398;6.564;2022-11-04T01:36:10;1.13;;;0.93;;
60454;SDS011;54989;53.398;6.564;2022-11-04T01:38:38;1.00;;;1.00;;
60454;SDS011;54989;53.398;6.564;2022-11-04T01:41:06;1.00;;;1.00;;
60454;SDS011;54989;53.398;6.564;2022-11-04T01:43:54;0.73;;;0.73;;
60454;SDS011;54989;53.398;6.564;2022-11-04T01:49:05;0.98;;;0.80;;
60454;SDS011;54989;53.398;6.564;2022-11-04T01:51:59;1.00;;;0.90;;
60454;SDS011;54989;53.398;6.564;2022-11-04T01:54:30;0.60;;;0.60;;
60454;SDS011;54989;53.398;6.564;2022-11-04T01:57:00;1.55;;;0.90;;
60454;SDS011;54989;53.398;6.564;2022-11-04T01:59:32;0.80;;;0.80;;
60454;SDS011;54989;53.398;6.564;2022-11-04T02:02:02;1.38;;;0.73;;
60454;SDS011;54989;53.398;6.564;2022-11-04T02:04:31;2.58;;;1.00;;
60454;SDS011;54989;53.398;6.564;2022-11-04T02:07:00;1.17;;;0.70;;
60454;SDS011;54989;53.398;6.564;2022-11-04T02:09:31;0.90;;;0.90;;
60454;SDS011;54989;53.398;6.564;2022-11-04T02:12:00;1.20;;;0.70;;
60454;SDS011;54989;53.398;6.564;2022-11-04T02:14:47;0.95;;;0.80;;
60454;SDS011;54989;53.398;6.564;2022-11-04T02:41:57;0.63;;;0.63;;
60454;SDS011;54989;53.398;6.564;2022-11-04T02:44:34;0.63;;;0.60;;
60454;SDS011;54989;53.398;6.564;2022-11-04T02:47:07;0.90;;;0.50;;
60454;SDS011;54989;53.398;6.564;2022-11-04T02:49:59;0.40;;;0.40;;
60454;SDS011;54989;53.398;6.564;2022-11-04T02:55:18;0.63;;;0.60;;
60454;SDS011;54989;53.398;6.564;2022-11-04T02:57:57;0.52;;;0.52;;
60454;SDS011;54989;53.398;6.564;2022-11-04T03:00:26;0.73;;;0.47;;
60454;SDS011;54989;53.398;6.564;2022-11-04T03:02:56;0.43;;;0.40;;
60454;SDS011;54989;53.398;6.564;2022-11-04T03:05:29;0.88;;;0.63;;
60454;SDS011;54989;53.398;6.564;2022-11-04T03:08:00;0.50;;;0.50;;
60454;SDS011;54989;53.398;6.564;2022-11-04T03:10:34;0.75;;;0.73;;
60454;SDS011;54989;53.398;6.564;2022-11-04T03:13:12;0.82;;;0.45;;
60454;SDS011;54989;53.398;6.564;2022-11-04T03:15:51;0.75;;;0.60;;
60454;SDS011;54989;53.398;6.564;2022-11-04T03:21:10;1.33;;;0.60;;
60454;SDS011;54989;53.398;6.564;2022-11-04T03:34:38;0.95;;;0.50;;
60454;SDS011;54989;53.398;6.564;2022-11-04T03:37:05;0.88;;;0.60;;
60454;SDS011;54989;53.398;6.564;2022-11-04T03:39:33;0.52;;;0.50;;
60454;SDS011;54989;53.398;6.564;2022-11-04T03:42:01;1.33;;;0.63;;
60454;SDS011;54989;53.398;6.564;2022-11-04T03:47:19;0.88;;;0.77;;
60454;SDS011;54989;53.398;6.564;2022-11-04T03:49:49;1.05;;;0.47;;
60454;SDS011;54989;53.398;6.564;2022-11-04T03:52:43;0.77;;;0.43;;
60454;SDS011;54989;53.398;6.564;2022-11-04T03:55:11;1.17;;;0.57;;
60454;SDS011;54989;53.398;6.564;2022-11-04T04:00:17;0.70;;;0.60;;
60454;SDS011;54989;53.398;6.564;2022-11-04T04:07:59;0.52;;;0.50;;
60454;SDS011;54989;53.398;6.564;2022-11-04T04:10:43;0.75;;;0.50;;
60454;SDS011;54989;53.398;6.564;2022-11-04T04:16:18;1.05;;;0.35;;
60454;SDS011;54989;53.398;6.564;2022-11-04T04:18:53;1.25;;;0.60;;
60454;SDS011;54989;53.398;6.564;2022-11-04T04:21:29;0.77;;;0.50;;
60454;SDS011;54989;53.398;6.564;2022-11-04T04:24:01;0.57;;;0.47;;
60454;SDS011;54989;53.398;6.564;2022-11-04T04:26:51;0.43;;;0.40;;
60454;SDS011;54989;53.398;6.564;2022-11-04T04:29:39;0.98;;;0.60;;
60454;SDS011;54989;53.398;6.564;2022-11-04T04:32:10;0.50;;;0.43;;
60454;SDS011;54989;53.398;6.564;2022-11-04T04:34:39;0.60;;;0.50;;
60454;SDS011;54989;53.398;6.564;2022-11-04T04:37:19;1.27;;;0.67;;
60454;SDS011;54989;53.398;6.564;2022-11-04T04:39:52;0.50;;;0.50;;
60454;SDS011;54989;53.398;6.564;2022-11-04T04:42:50;1.38;;;0.60;;
60454;SDS011;54989;53.398;6.564;2022-11-04T04:45:38;0.73;;;0.45;;
60454;SDS011;54989;53.398;6.564;2022-11-04T04:48:09;0.70;;;0.43;;
60454;SDS011;54989;53.398;6.564;2022-11-04T04:50:41;0.93;;;0.63;;
60454;SDS011;54989;53.398;6.564;2022-11-04T04:53:15;0.55;;;0.47;;
60454;SDS011;54989;53.398;6.564;2022-11-04T04:55:42;0.93;;;0.50;;
60454;SDS011;54989;53.398;6.564;2022-11-04T04:58:10;0.75;;;0.50;;
60454;SDS011;54989;53.398;6.564;2022-11-04T05:00:37;1.08;;;0.40;;
60454;SDS011;54989;53.398;6.564;2022-11-04T05:03:05;0.63;;;0.52;;
60454;SDS011;54989;53.398;6.564;2022-11-04T05:05:33;0.73;;;0.43;;
60454;SDS011;54989;53.398;6.564;2022-11-04T05:08:04;0.50;;;0.40;;
60454;SDS011;54989;53.398;6.564;2022-11-04T05:10:33;0.60;;;0.47;;
60454;SDS011;54989;53.398;6.564;2022-11-04T05:13:01;0.40;;;0.38;;
60454;SDS011;54989;53.398;6.564;2022-11-04T05:15:46;0.85;;;0.40;;
60454;SDS011;54989;53.398;6.564;2022-11-04T05:18:14;0.80;;;0.60;;
60454;SDS011;54989;53.398;6.564;2022-11-04T05:20:41;0.93;;;0.60;;
60454;SDS011;54989;53.398;6.564;2022-11-04T05:23:09;1.65;;;0.63;;
60454;SDS011;54989;53.398;6.564;2022-11-04T05:25:38;0.50;;;0.50;;
60454;SDS011;54989;53.398;6.564;2022-11-04T05:28:07;0.63;;;0.50;;
60454;SDS011;54989;53.398;6.564;2022-11-04T05:30:35;1.08;;;0.50;;
60454;SDS011;54989;53.398;6.564;2022-11-04T05:33:02;0.50;;;0.50;;
60454;SDS011;54989;53.398;6.564;2022-11-04T05:35:31;0.70;;;0.38;;
60454;SDS011;54989;53.398;6.564;2022-11-04T05:37:59;0.47;;;0.40;;
60454;SDS011;54989;53.398;6.564;2022-11-04T05:40:26;0.30;;;0.30;;
60454;SDS011;54989;53.398;6.564;2022-11-04T05:42:56;0.98;;;0.55;;
60454;SDS011;54989;53.398;6.564;2022-11-04T05:45:25;0.65;;;0.57;;
60454;SDS011;54989;53.398;6.564;2022-11-04T05:47:59;0.35;;;0.32;;
60454;SDS011;54989;53.398;6.564;2022-11-04T05:50:28;0.82;;;0.45;;
60454;SDS011;54989;53.398;6.564;2022-11-04T05:52:57;2.28;;;0.50;;
60454;SDS011;54989;53.398;6.564;2022-11-04T05:55:25;0.88;;;0.50;;
60454;SDS011;54989;53.398;6.564;2022-11-04T05:57:52;0.93;;;0.55;;
60454;SDS011;54989;53.398;6.564;2022-11-04T06:00:20;0.40;;;0.40;;
60454;SDS011;54989;53.398;6.564;2022-11-04T06:02:47;0.50;;;0.50;;
60454;SDS011;54989;53.398;6.564;2022-11-04T06:05:15;0.50;;;0.50;;
60454;SDS011;54989;53.398;6.564;2022-11-04T06:07:42;1.02;;;0.52;;
60454;SDS011;54989;53.398;6.564;2022-11-04T06:10:10;0.30;;;0.30;;
60454;SDS011;54989;53.398;6.564;2022-11-04T06:12:37;0.50;;;0.40;;
60454;SDS011;54989;53.398;6.564;2022-11-04T06:15:05;0.80;;;0.47;;
60454;SDS011;54989;53.398;6.564;2022-11-04T06:17:33;0.32;;;0.30;;
60454;SDS011;54989;53.398;6.564;2022-11-04T06:20:00;0.65;;;0.40;;
60454;SDS011;54989;53.398;6.564;2022-11-04T06:22:28;1.05;;;0.55;;
60454;SDS011;54989;53.398;6.564;2022-11-04T06:24:55;1.48;;;0.70;;
60454;SDS011;54989;53.398;6.564;2022-11-04T06:27:23;0.52;;;0.45;;
60454;SDS011;54989;53.398;6.564;2022-11-04T06:29:50;0.50;;;0.50;;
60454;SDS011;54989;53.398;6.564;2022-11-04T06:32:19;0.40;;;0.40;;
60454;SDS011;54989;53.398;6.564;2022-11-04T06:34:46;0.47;;;0.22;;
60454;SDS011;54989;53.398;6.564;2022-11-04T06:37:14;0.57;;;0.40;;
60454;SDS011;54989;53.398;6.564;2022-11-04T06:39:41;0.40;;;0.40;;
60454;SDS011;54989;53.398;6.564;2022-11-04T06:42:08;0.30;;;0.30;;
60454;SDS011;54989;53.398;6.564;2022-11-04T06:44:36;0.50;;;0.45;;
60454;SDS011;54989;53.398;6.564;2022-11-04T06:47:03;0.30;;;0.30;;
60454;SDS011;54989;53.398;6.564;2022-11-04T06:49:31;2.15;;;0.60;;
60454;SDS011;54989;53.398;6.564;2022-11-04T06:51:58;1.05;;;0.60;;
60454;SDS011;54989;53.398;6.564;2022-11-04T06:54:28;0.93;;;0.60;;
60454;SDS011;54989;53.398;6.564;2022-11-04T06:56:55;0.60;;;0.40;;
60454;SDS011;54989;53.398;6.564;2022-11-04T06:59:23;0.85;;;0.38;;
60454;SDS011;54989;53.398;6.564;2022-11-04T07:01:50;1.20;;;0.50;;
60454;SDS011;54989;53.398;6.564;2022-11-04T07:04:19;2.05;;;0.40;;
60454;SDS011;54989;53.398;6.564;2022-11-04T07:06:46;0.80;;;0.40;;
60454;SDS011;54989;53.398;6.564;2022-11-04T07:09:14;0.70;;;0.43;;
60454;SDS011;54989;53.398;6.564;2022-11-04T07:11:42;1.42;;;0.50;;
60454;SDS011;54989;53.398;6.564;2022-11-04T07:14:11;1.17;;;0.70;;
60454;SDS011;54989;53.398;6.564;2022-11-04T07:16:38;2.65;;;0.80;;
60454;SDS011;54989;53.398;6.564;2022-11-04T07:19:06;0.40;;;0.40;;
60454;SDS011;54989;53.398;6.564;2022-11-04T07:21:33;1.38;;;0.63;;
60454;SDS011;54989;53.398;6.564;2022-11-04T07:24:01;0.50;;;0.40;;
60454;SDS011;54989;53.398;6.564;2022-11-04T07:26:28;1.33;;;0.68;;
60454;SDS011;54989;53.398;6.564;2022-11-04T07:28:56;0.50;;;0.40;;
60454;SDS011;54989;53.398;6.564;2022-11-04T07:31:25;0.95;;;0.70;;
60454;SDS011;54989;53.398;6.564;2022-11-04T07:33:53;0.60;;;0.50;;
60454;SDS011;54989;53.398;6.564;2022-11-04T07:36:20;0.40;;;0.40;;
60454;SDS011;54989;53.398;6.564;2022-11-04T07:38:48;0.60;;;0.52;;
60454;SDS011;54989;53.398;6.564;2022-11-04T07:41:15;1.23;;;0.60;;
60454;SDS011;54989;53.398;6.564;2022-11-04T07:43:46;0.40;;;0.40;;
60454;SDS011;54989;53.398;6.564;2022-11-04T07:46:17;0.70;;;0.57;;
60454;SDS011;54989;53.398;6.564;2022-11-04T07:48:46;0.90;;;0.50;;
60454;SDS011;54989;53.398;6.564;2022-11-04T07:51:14;2.10;;;0.50;;
60454;SDS011;54989;53.398;6.564;2022-11-04T07:53:43;0.65;;;0.60;;
60454;SDS011;54989;53.398;6.564;2022-11-04T07:56:11;3.35;;;3.05;;
60454;SDS011;54989;53.398;6.564;2022-11-04T07:58:41;4.75;;;3.85;;
60454;SDS011;54989;53.398;6.564;2022-11-04T08:01:10;3.00;;;2.78;;
60454;SDS011;54989;53.398;6.564;2022-11-04T08:03:39;3.40;;;2.75;;
60454;SDS011;54989;53.398;6.564;2022-11-04T08:06:07;3.45;;;2.85;;
60454;SDS011;54989;53.398;6.564;2022-11-04T08:08:36;3.58;;;2.60;;
60454;SDS011;54989;53.398;6.564;2022-11-04T08:11:06;2.30;;;2.20;;
60454;SDS011;54989;53.398;6.564;2022-11-04T08:13:42;2.40;;;2.20;;
60454;SDS011;54989;53.398;6.564;2022-11-04T08:16:15;2.55;;;2.30;;
60454;SDS011;54989;53.398;6.564;2022-11-04T08:18:45;2.42;;;2.22;;
60454;SDS011;54989;53.398;6.564;2022-11-04T08:21:14;3.50;;;2.00;;
60454;SDS011;54989;53.398;6.564;2022-11-04T08:23:42;2.13;;;2.03;;
60454;SDS011;54989;53.398;6.564;2022-11-04T08:26:16;2.10;;;2.00;;
60454;SDS011;54989;53.398;6.564;2022-11-04T08:28:46;3.17;;;1.80;;
60454;SDS011;54989;53.398;6.564;2022-11-04T08:31:15;1.95;;;1.85;;
60454;SDS011;54989;53.398;6.564;2022-11-04T08:33:54;1.90;;;1.80;;
60454;SDS011;54989;53.398;6.564;2022-11-04T08:36:24;2.47;;;1.67;;
60454;SDS011;54989;53.398;6.564;2022-11-04T08:38:53;2.00;;;1.63;;
60454;SDS011;54989;53.398;6.564;2022-11-04T08:41:23;1.70;;;1.60;;
60454;SDS011;54989;53.398;6.564;2022-11-04T08:43:52;1.67;;;1.58;;
60454;SDS011;54989;53.398;6.564;2022-11-04T08:46:20;1.70;;;1.60;;
60454;SDS011;54989;53.398;6.564;2022-11-04T08:48:48;1.60;;;1.50;;
60454;SDS011;54989;53.398;6.564;2022-11-04T08:51:17;1.98;;;1.60;;
60454;SDS011;54989;53.398;6.564;2022-11-04T08:53:47;1.27;;;1.17;;
60454;SDS011;54989;53.398;6.564;2022-11-04T08:56:17;1.63;;;1.40;;
60454;SDS011;54989;53.398;6.564;2022-11-04T08:58:50;1.73;;;1.27;;
60454;SDS011;54989;53.398;6.564;2022-11-04T09:01:19;2.58;;;1.40;;
60454;SDS011;54989;53.398;6.564;2022-11-04T09:03:48;1.70;;;1.55;;
60454;SDS011;54989;53.398;6.564;2022-11-04T09:06:18;2.75;;;1.45;;
60454;SDS011;54989;53.398;6.564;2022-11-04T09:08:50;2.00;;;1.70;;
60454;SDS011;54989;53.398;6.564;2022-11-04T09:11:21;2.00;;;1.45;;
60454;SDS011;54989;53.398;6.564;2022-11-04T09:13:49;1.42;;;1.30;;
60454;SDS011;54989;53.398;6.564;2022-11-04T09:16:16;2.63;;;1.60;;
60454;SDS011;54989;53.398;6.564;2022-11-04T09:18:44;1.55;;;1.40;;
60454;SDS011;54989;53.398;6.564;2022-11-04T09:21:12;2.90;;;1.35;;
60454;SDS011;54989;53.398;6.564;2022-11-04T09:23:40;2.20;;;1.25;;
60454;SDS011;54989;53.398;6.564;2022-11-04T09:26:11;1.15;;;1.10;;
60454;SDS011;54989;53.398;6.564;2022-11-04T09:28:40;1.42;;;1.27;;
60454;SDS011;54989;53.398;6.564;2022-11-04T09:31:13;1.23;;;1.02;;
60454;SDS011;54989;53.398;6.564;2022-11-04T09:33:43;2.60;;;1.08;;
60454;SDS011;54989;53.398;6.564;2022-11-04T09:36:11;2.47;;;1.30;;
60454;SDS011;54989;53.398;6.564;2022-11-04T09:38:40;1.05;;;1.00;;
60454;SDS011;54989;53.398;6.564;2022-11-04T09:41:10;1.27;;;0.85;;
60454;SDS011;54989;53.398;6.564;2022-11-04T09:46:30;1.35;;;1.00;;
60454;SDS011;54989;53.398;6.564;2022-11-04T09:49:00;4.65;;;1.10;;
60454;SDS011;54989;53.398;6.564;2022-11-04T09:51:30;3.33;;;1.13;;
60454;SDS011;54989;53.398;6.564;2022-11-04T09:56:50;2.08;;;0.82;;
60454;SDS011;54989;53.398;6.564;2022-11-04T09:59:31;5.68;;;1.27;;
60454;SDS011;54989;53.398;6.564;2022-11-04T10:02:06;3.63;;;1.02;;
60454;SDS011;54989;53.398;6.564;2022-11-04T10:05:06;2.45;;;0.80;;
60454;SDS011;54989;53.398;6.564;2022-11-04T10:16:39;1.77;;;0.85;;
60454;SDS011;54989;53.398;6.564;2022-11-04T10:19:32;1.30;;;0.93;;
60454;SDS011;54989;53.398;6.564;2022-11-04T10:25:27;1.67;;;0.70;;
60454;SDS011;54989;53.398;6.564;2022-11-04T10:28:04;1.40;;;0.70;;
60454;SDS011;54989;53.398;6.564;2022-11-04T10:30:36;1.15;;;0.90;;
60454;SDS011;54989;53.398;6.564;2022-11-04T10:35:41;1.60;;;0.65;;
60454;SDS011;54989;53.398;6.564;2022-11-04T10:41:02;0.55;;;0.55;;
60454;SDS011;54989;53.398;6.564;2022-11-04T10:43:49;1.38;;;1.00;;
60454;SDS011;54989;53.398;6.564;2022-11-04T10:46:36;1.33;;;0.77;;
60454;SDS011;54989;53.398;6.564;2022-11-04T10:52:27;1.83;;;0.80;;
60454;SDS011;54989;53.398;6.564;2022-11-04T10:54:58;0.60;;;0.50;;
60454;SDS011;54989;53.398;6.564;2022-11-04T10:57:26;1.30;;;0.55;;
60454;SDS011;54989;53.398;6.564;2022-11-04T10:59:54;1.88;;;0.90;;
60454;SDS011;54989;53.398;6.564;2022-11-04T11:02:44;0.93;;;0.68;;
60454;SDS011;54989;53.398;6.564;2022-11-04T11:07:46;1.85;;;0.90;;
60454;SDS011;54989;53.398;6.564;2022-11-04T11:15:33;1.50;;;0.70;;
60454;SDS011;54989;53.398;6.564;2022-11-04T11:18:10;2.60;;;0.98;;
60454;SDS011;54989;53.398;6.564;2022-11-04T11:20:51;1.05;;;0.60;;
60454;SDS011;54989;53.398;6.564;2022-11-04T11:26:21;0.85;;;0.63;;
60454;SDS011;54989;53.398;6.564;2022-11-04T11:28:57;1.95;;;0.80;;
60454;SDS011;54989;53.398;6.564;2022-11-04T11:31:36;2.35;;;1.00;;
60454;SDS011;54989;53.398;6.564;2022-11-04T11:34:13;2.15;;;0.68;;
60454;SDS011;54989;53.398;6.564;2022-11-04T11:36:44;1.20;;;0.70;;
60454;SDS011;54989;53.398;6.564;2022-11-04T11:39:15;3.60;;;1.27;;
60454;SDS011;54989;53.398;6.564;2022-11-04T11:41:57;0.98;;;0.75;;
60454;SDS011;54989;53.398;6.564;2022-11-04T11:44:44;2.58;;;0.90;;
60454;SDS011;54989;53.398;6.564;2022-11-04T11:47:18;2.80;;;0.80;;
60454;SDS011;54989;53.398;6.564;2022-11-04T11:50:04;1.27;;;1.00;;
60454;SDS011;54989;53.398;6.564;2022-11-04T11:52:35;1.60;;;0.93;;
60454;SDS011;54989;53.398;6.564;2022-11-04T11:58:00;1.55;;;0.80;;
60454;SDS011;54989;53.398;6.564;2022-11-04T12:03:51;3.05;;;0.98;;
60454;SDS011;54989;53.398;6.564;2022-11-04T12:06:48;2.25;;;0.80;;
60454;SDS011;54989;53.398;6.564;2022-11-04T12:13:11;1.15;;;0.80;;
60454;SDS011;54989;53.398;6.564;2022-11-04T12:18:46;3.47;;;1.10;;
60454;SDS011;54989;53.398;6.564;2022-11-04T12:21:21;1.88;;;0.93;;
60454;SDS011;54989;53.398;6.564;2022-11-04T12:24:02;2.53;;;1.08;;
60454;SDS011;54989;53.398;6.564;2022-11-04T12:26:55;1.35;;;0.80;;
60454;SDS011;54989;53.398;6.564;2022-11-04T12:29:49;2.78;;;1.05;;
60454;SDS011;54989;53.398;6.564;2022-11-04T12:32:40;1.85;;;0.90;;
60454;SDS011;54989;53.398;6.564;2022-11-04T12:38:11;2.40;;;1.05;;
60454;SDS011;54989;53.398;6.564;2022-11-04T12:41:13;2.33;;;1.23;;
60454;SDS011;54989;53.398;6.564;2022-11-04T13:00:42;1.67;;;1.00;;
60454;SDS011;54989;53.398;6.564;2022-11-04T13:03:23;2.20;;;0.98;;
60454;SDS011;54989;53.398;6.564;2022-11-04T13:06:00;0.98;;;0.70;;
60454;SDS011;54989;53.398;6.564;2022-11-04T13:08:38;3.00;;;0.98;;
60454;SDS011;54989;53.398;6.564;2022-11-04T13:11:18;2.60;;;1.05;;
60454;SDS011;54989;53.398;6.564;2022-11-04T13:16:59;2.55;;;0.93;;
60454;SDS011;54989;53.398;6.564;2022-11-04T13:19:37;3.92;;;1.10;;
60454;SDS011;54989;53.398;6.564;2022-11-04T13:22:15;3.08;;;1.20;;
60454;SDS011;54989;53.398;6.564;2022-11-04T13:25:05;2.38;;;0.90;;
60454;SDS011;54989;53.398;6.564;2022-11-04T13:27:44;1.42;;;0.88;;
60454;SDS011;54989;53.398;6.564;2022-11-04T13:30:31;2.58;;;0.80;;
60454;SDS011;54989;53.398;6.564;2022-11-04T13:33:26;2.40;;;1.00;;
60454;SDS011;54989;53.398;6.564;2022-11-04T13:38:38;4.03;;;1.20;;
60454;SDS011;54989;53.398;6.564;2022-11-04T13:44:13;2.35;;;1.10;;
60454;SDS011;54989;53.398;6.564;2022-11-04T13:46:54;2.53;;;1.00;;
60454;SDS011;54989;53.398;6.564;2022-11-04T13:49:28;2.22;;;1.15;;
60454;SDS011;54989;53.398;6.564;2022-11-04T13:52:04;3.85;;;1.10;;
60454;SDS011;54989;53.398;6.564;2022-11-04T13:54:37;3.00;;;1.17;;
60454;SDS011;54989;53.398;6.564;2022-11-04T13:57:13;4.40;;;1.20;;
60454;SDS011;54989;53.398;6.564;2022-11-04T14:02:44;1.63;;;1.10;;
60454;SDS011;54989;53.398;6.564;2022-11-04T14:18:51;2.83;;;0.95;;
60454;SDS011;54989;53.398;6.564;2022-11-04T14:21:20;0.98;;;0.80;;
60454;SDS011;54989;53.398;6.564;2022-11-04T14:23:59;2.15;;;0.93;;
60454;SDS011;54989;53.398;6.564;2022-11-04T14:26:43;2.63;;;0.98;;
60454;SDS011;54989;53.398;6.564;2022-11-04T14:31:49;3.55;;;0.95;;
60454;SDS011;54989;53.398;6.564;2022-11-04T14:34:40;1.75;;;1.00;;
60454;SDS011;54989;53.398;6.564;2022-11-04T14:37:18;1.70;;;0.70;;
60454;SDS011;54989;53.398;6.564;2022-11-04T14:39:52;1.37;;;0.93;;
60454;SDS011;54989;53.398;6.564;2022-11-04T14:45:28;1.75;;;1.00;;
60454;SDS011;54989;53.398;6.564;2022-11-04T14:48:09;1.92;;;1.00;;
60454;SDS011;54989;53.398;6.564;2022-11-04T14:50:42;3.95;;;1.15;;
60454;SDS011;54989;53.398;6.564;2022-11-04T14:53:15;2.13;;;1.10;;
60454;SDS011;54989;53.398;6.564;2022-11-04T14:56:05;1.27;;;1.05;;
60454;SDS011;54989;53.398;6.564;2022-11-04T15:01:23;2.50;;;1.50;;
60454;SDS011;54989;53.398;6.564;2022-11-04T15:04:07;1.08;;;0.77;;
60454;SDS011;54989;53.398;6.564;2022-11-04T15:06:44;2.55;;;1.08;;
60454;SDS011;54989;53.398;6.564;2022-11-04T15:09:29;1.40;;;0.70;;
60454;SDS011;54989;53.398;6.564;2022-11-04T15:14:54;1.55;;;1.00;;
60454;SDS011;54989;53.398;6.564;2022-11-04T15:17:23;1.88;;;1.00;;
60454;SDS011;54989;53.398;6.564;2022-11-04T15:19:56;4.20;;;0.98;;
60454;SDS011;54989;53.398;6.564;2022-11-04T15:22:26;2.55;;;1.05;;
60454;SDS011;54989;53.398;6.564;2022-11-04T15:24:57;2.05;;;0.90;;
60454;SDS011;54989;53.398;6.564;2022-11-04T15:27:29;2.90;;;1.00;;
60454;SDS011;54989;53.398;6.564;2022-11-04T15:30:00;3.58;;;1.60;;
60454;SDS011;54989;53.398;6.564;2022-11-04T15:32:30;1.90;;;1.00;;
60454;SDS011;54989;53.398;6.564;2022-11-04T15:34:57;1.77;;;0.90;;
60454;SDS011;54989;53.398;6.564;2022-11-04T15:37:26;2.05;;;1.00;;
60454;SDS011;54989;53.398;6.564;2022-11-04T15:39:56;2.97;;;1.45;;
60454;SDS011;54989;53.398;6.564;2022-11-04T15:42:26;2.17;;;1.00;;
60454;SDS011;54989;53.398;6.564;2022-11-04T15:53:31;2.63;;;1.02;;
60454;SDS011;54989;53.398;6.564;2022-11-04T15:56:02;1.30;;;0.90;;
60454;SDS011;54989;53.398;6.564;2022-11-04T15:58:30;1.83;;;1.08;;
60454;SDS011;54989;53.398;6.564;2022-11-04T16:00:57;3.53;;;1.15;;
60454;SDS011;54989;53.398;6.564;2022-11-04T16:03:25;1.60;;;0.95;;
60454;SDS011;54989;53.398;6.564;2022-11-04T16:05:59;2.05;;;1.00;;
60454;SDS011;54989;53.398;6.564;2022-11-04T16:08:29;2.22;;;1.10;;
60454;SDS011;54989;53.398;6.564;2022-11-04T16:11:08;1.65;;;0.98;;
60454;SDS011;54989;53.398;6.564;2022-11-04T16:13:39;1.55;;;0.98;;
60454;SDS011;54989;53.398;6.564;2022-11-04T16:19:03;1.23;;;0.77;;
60454;SDS011;54989;53.398;6.564;2022-11-04T16:21:34;1.92;;;1.00;;
60454;SDS011;54989;53.398;6.564;2022-11-04T16:24:03;1.95;;;1.10;;
60454;SDS011;54989;53.398;6.564;2022-11-04T16:26:38;1.35;;;0.88;;
60454;SDS011;54989;53.398;6.564;2022-11-04T16:29:08;2.25;;;1.00;;
60454;SDS011;54989;53.398;6.564;2022-11-04T16:31:42;2.33;;;1.13;;
60454;SDS011;54989;53.398;6.564;2022-11-04T16:34:12;1.60;;;0.88;;
60454;SDS011;54989;53.398;6.564;2022-11-04T16:36:40;2.50;;;0.90;;
60454;SDS011;54989;53.398;6.564;2022-11-04T16:39:07;1.02;;;0.80;;
60454;SDS011;54989;53.398;6.564;2022-11-04T16:41:35;1.70;;;1.02;;
60454;SDS011;54989;53.398;6.564;2022-11-04T16:44:13;1.73;;;0.95;;
60454;SDS011;54989;53.398;6.564;2022-11-04T16:49:14;1.75;;;1.05;;
60454;SDS011;54989;53.398;6.564;2022-11-04T16:51:44;1.92;;;0.90;;
60454;SDS011;54989;53.398;6.564;2022-11-04T16:54:13;1.80;;;0.80;;
60454;SDS011;54989;53.398;6.564;2022-11-04T16:56:41;2.00;;;0.98;;
60454;SDS011;54989;53.398;6.564;2022-11-04T16:59:09;1.23;;;0.65;;
60454;SDS011;54989;53.398;6.564;2022-11-04T17:01:37;1.67;;;1.23;;
60454;SDS011;54989;53.398;6.564;2022-11-04T17:04:05;1.88;;;0.90;;
60454;SDS011;54989;53.398;6.564;2022-11-04T17:06:34;1.15;;;0.90;;
60454;SDS011;54989;53.398;6.564;2022-11-04T17:09:02;1.35;;;0.90;;
60454;SDS011;54989;53.398;6.564;2022-11-04T17:11:30;1.67;;;1.00;;
60454;SDS011;54989;53.398;6.564;2022-11-04T17:13:58;0.68;;;0.65;;
60454;SDS011;54989;53.398;6.564;2022-11-04T17:16:25;2.15;;;0.80;;
60454;SDS011;54989;53.398;6.564;2022-11-04T17:18:55;1.77;;;1.08;;
60454;SDS011;54989;53.398;6.564;2022-11-04T17:21:23;2.53;;;0.85;;
60454;SDS011;54989;53.398;6.564;2022-11-04T17:23:53;1.98;;;1.05;;
60454;SDS011;54989;53.398;6.564;2022-11-04T17:26:21;1.80;;;0.95;;
60454;SDS011;54989;53.398;6.564;2022-11-04T17:28:49;2.35;;;0.95;;
60454;SDS011;54989;53.398;6.564;2022-11-04T17:31:18;1.30;;;0.77;;
60454;SDS011;54989;53.398;6.564;2022-11-04T17:33:46;2.05;;;0.98;;
60454;SDS011;54989;53.398;6.564;2022-11-04T17:36:14;1.45;;;0.80;;
60454;SDS011;54989;53.398;6.564;2022-11-04T17:38:44;1.50;;;0.80;;
60454;SDS011;54989;53.398;6.564;2022-11-04T17:41:12;1.92;;;1.10;;
60454;SDS011;54989;53.398;6.564;2022-11-04T17:44:09;1.85;;;1.05;;
60454;SDS011;54989;53.398;6.564;2022-11-04T17:46:38;1.73;;;1.15;;
60454;SDS011;54989;53.398;6.564;2022-11-04T17:49:15;1.73;;;0.80;;
60454;SDS011;54989;53.398;6.564;2022-11-04T17:51:48;1.55;;;0.85;;
60454;SDS011;54989;53.398;6.564;2022-11-04T17:54:21;1.45;;;0.90;;
60454;SDS011;54989;53.398;6.564;2022-11-04T17:56:50;1.55;;;0.70;;
60454;SDS011;54989;53.398;6.564;2022-11-04T17:59:18;2.80;;;0.95;;
60454;SDS011;54989;53.398;6.564;2022-11-04T18:01:46;2.65;;;1.00;;
60454;SDS011;54989;53.398;6.564;2022-11-04T18:04:15;1.88;;;0.90;;
60454;SDS011;54989;53.398;6.564;2022-11-04T18:06:44;2.83;;;1.02;;
60454;SDS011;54989;53.398;6.564;2022-11-04T18:09:12;1.52;;;0.90;;
60454;SDS011;54989;53.398;6.564;2022-11-04T18:11:41;1.73;;;0.80;;
60454;SDS011;54989;53.398;6.564;2022-11-04T18:14:28;1.67;;;0.93;;
60454;SDS011;54989;53.398;6.564;2022-11-04T18:16:56;1.90;;;1.20;;
60454;SDS011;54989;53.398;6.564;2022-11-04T18:19:24;1.38;;;1.15;;